Dades meteomassalio
Diari Summary for Marc 28, 2017 Units:  Metric    English   Both
« Previous Day
Next Day »
Diari Semanal Mensual Anual Personalitzat
  Maxima: Minima: Mijana:
Temperatura: 19.5 °C 3.6 °C 11.4 °C
Rosada: 10.2 °C 2.6 °C 6.3 °C
Humitat: 94 % 43 % 74 %
Velocitat del vent: 24.1 km/h 0.0 km/h 4.4 km/h
Racha vent: 24.1 km/h - -
Vent:- - WSW
Pressio: 1028.3 hPa 1024.3 hPa -
Pluja: 0.3 mm    
Historical Graphs
 
 
Tabular Data for Marc 28, 2017
Time Temperature Dew Point Pressure Wind Wind Speed Wind Gust Humidity Rainfall Rate (Hourly) solar Conditions
00:04 8.3 °C 6.8 °C 1024.3 hPa Calm     90 % 0.0 mm 0.0 W/m2 RA
00:09 8.2 °C 6.7 °C 1024.6 hPa Calm     90 % 0.0 mm 0.0 W/m2 CLR
00:14 8.1 °C 6.6 °C 1024.6 hPa Calm     90 % 0.0 mm 0.0 W/m2 CLR
00:19 8.1 °C 6.7 °C 1024.6 hPa Calm     91 % 0.0 mm 0.0 W/m2 CLR
00:24 8.0 °C 6.4 °C 1024.6 hPa Calm     90 % 0.0 mm 0.0 W/m2 CLR
00:29 7.8 °C 6.2 °C 1024.6 hPa Calm     90 % 0.0 mm 0.0 W/m2 CLR
00:34 7.7 °C 6.3 °C 1024.6 hPa Calm     91 % 0.0 mm 0.0 W/m2 CLR
00:39 7.6 °C 6.2 °C 1024.6 hPa Calm     91 % 0.0 mm 0.0 W/m2 CLR
00:44 7.6 °C 6.2 °C 1024.9 hPa Calm     91 % 0.0 mm 0.0 W/m2 CLR
00:49 7.4 °C 6.0 °C 1024.9 hPa Calm     91 % 0.0 mm 0.0 W/m2 CLR
00:54 7.3 °C 5.9 °C 1024.9 hPa Calm     91 % 0.0 mm 0.0 W/m2 CLR
00:59 7.2 °C 6.0 °C 1024.9 hPa Calm     92 % 0.0 mm 0.0 W/m2 CLR
01:04 7.1 °C 5.9 °C 1024.9 hPa Calm     92 % 0.0 mm 0.0 W/m2 CLR
01:09 7.0 °C 5.6 °C 1024.9 hPa Calm     91 % 0.0 mm 0.0 W/m2 CLR
01:14 6.9 °C 5.7 °C 1024.9 hPa Calm     92 % 0.0 mm 0.0 W/m2 CLR
01:15 6.9 °C 5.7 °C 1024.9 hPa Calm     92 % 0.0 mm 0.0 W/m2 CLR
01:20 6.8 °C 5.6 °C 1024.9 hPa Calm     92 % 0.0 mm 0.0 W/m2 CLR
01:25 6.8 °C 5.6 °C 1024.9 hPa Calm     92 % 0.0 mm 0.0 W/m2 CLR
01:30 6.8 °C 5.6 °C 1024.9 hPa Calm     92 % 0.0 mm 0.0 W/m2 CLR
01:35 6.8 °C 5.6 °C 1024.9 hPa Calm     92 % 0.0 mm 0.0 W/m2 CLR
01:40 6.9 °C 5.7 °C 1024.9 hPa Calm     92 % 0.0 mm 0.0 W/m2 CLR
01:45 6.8 °C 5.6 °C 1024.9 hPa Calm     92 % 0.0 mm 0.0 W/m2 CLR
01:50 6.6 °C 5.3 °C 1025.3 hPa Calm     92 % 0.0 mm 0.0 W/m2 CLR
01:55 6.4 °C 5.2 °C 1025.3 hPa Calm     92 % 0.0 mm 0.0 W/m2 CLR
02:00 6.3 °C 5.1 °C 1025.3 hPa Calm     92 % 0.0 mm 0.0 W/m2 CLR
02:05 6.3 °C 5.1 °C 1025.3 hPa Calm     92 % 0.0 mm 0.0 W/m2 CLR
02:10 6.3 °C 5.1 °C 1025.3 hPa Calm     92 % 0.0 mm 0.0 W/m2 CLR
02:20 6.2 °C 5.0 °C 1025.3 hPa Calm     92 % 0.0 mm 0.0 W/m2 CLR
02:25 6.1 °C 4.8 °C 1025.3 hPa Calm     92 % 0.0 mm 0.0 W/m2 CLR
02:30 6.0 °C 4.8 °C 1025.3 hPa Calm     92 % 0.0 mm 0.0 W/m2 CLR
02:35 5.9 °C 4.7 °C 1025.6 hPa Calm     92 % 0.0 mm 0.0 W/m2 CLR
02:40 5.9 °C 4.7 °C 1025.3 hPa Calm     92 % 0.0 mm 0.0 W/m2 CLR
02:45 5.8 °C 4.6 °C 1025.3 hPa Calm     92 % 0.0 mm 0.0 W/m2 CLR
02:50 5.8 °C 4.6 °C 1025.3 hPa Calm     92 % 0.0 mm 0.0 W/m2 CLR
02:55 5.6 °C 4.4 °C 1025.3 hPa Calm     92 % 0.0 mm 0.0 W/m2 CLR
03:00 5.4 °C 4.2 °C 1025.3 hPa Calm     92 % 0.0 mm 0.0 W/m2 CLR
03:05 5.4 °C 4.2 °C 1025.6 hPa Calm     92 % 0.0 mm 0.0 W/m2 CLR
03:10 5.3 °C 4.3 °C 1025.6 hPa Calm     93 % 0.0 mm 0.0 W/m2 CLR
03:15 5.4 °C 4.4 °C 1025.6 hPa Calm     93 % 0.0 mm 0.0 W/m2 CLR
03:20 5.4 °C 4.3 °C 1025.6 hPa Calm     93 % 0.0 mm 0.0 W/m2 CLR
03:25 5.2 °C 4.1 °C 1025.6 hPa Calm     92 % 0.0 mm 0.0 W/m2 CLR
03:30 5.1 °C 4.1 °C 1025.6 hPa Calm     93 % 0.0 mm 0.0 W/m2 CLR
03:35 5.1 °C 3.9 °C 1025.6 hPa Calm     92 % 0.0 mm 0.0 W/m2 CLR
03:36 5.1 °C 3.9 °C 1025.6 hPa Calm     92 % 0.0 mm 0.0 W/m2 CLR
03:41 5.0 °C 3.9 °C 1025.6 hPa Calm     93 % 0.0 mm 0.0 W/m2 CLR
03:46 5.1 °C 4.0 °C 1025.6 hPa Calm     93 % 0.0 mm 0.0 W/m2 CLR
03:51 5.1 °C 4.0 °C 1025.6 hPa Calm     93 % 0.0 mm 0.0 W/m2 CLR
03:56 5.0 °C 3.9 °C 1025.6 hPa Calm     93 % 0.0 mm 0.0 W/m2 CLR
04:01 5.1 °C 4.0 °C 1025.3 hPa Calm     93 % 0.0 mm 0.0 W/m2 CLR
04:06 4.9 °C 3.9 °C 1025.6 hPa Calm     93 % 0.0 mm 0.0 W/m2 CLR
04:11 4.8 °C 3.7 °C 1025.6 hPa Calm     93 % 0.0 mm 0.0 W/m2 CLR
04:16 4.7 °C 3.6 °C 1025.6 hPa Calm     93 % 0.0 mm 0.0 W/m2 CLR
04:21 4.6 °C 3.6 °C 1025.6 hPa Calm     93 % 0.0 mm 0.0 W/m2 CLR
04:26 4.6 °C 3.5 °C 1025.6 hPa Calm     93 % 0.0 mm 0.0 W/m2 CLR
04:31 4.6 °C 3.5 °C 1025.6 hPa Calm     93 % 0.0 mm 0.0 W/m2 CLR
04:36 4.5 °C 3.4 °C 1025.6 hPa Calm     93 % 0.0 mm 0.0 W/m2 CLR
04:41 4.3 °C 3.3 °C 1025.6 hPa Calm     93 % 0.0 mm 0.0 W/m2 CLR
04:46 4.3 °C 3.3 °C 1025.6 hPa Calm     93 % 0.0 mm 0.0 W/m2 CLR
04:51 4.3 °C 3.3 °C 1025.6 hPa Calm     93 % 0.0 mm 0.0 W/m2 CLR
04:56 4.3 °C 3.2 °C 1025.6 hPa Calm     93 % 0.0 mm 0.0 W/m2 CLR
05:01 4.2 °C 3.2 °C 1025.6 hPa Calm     93 % 0.0 mm 0.0 W/m2 CLR
05:06 4.1 °C 3.1 °C 1025.6 hPa Calm     93 % 0.0 mm 0.0 W/m2 CLR
05:11 4.2 °C 3.1 °C 1025.6 hPa Calm     93 % 0.0 mm 0.0 W/m2 CLR
05:16 4.3 °C 3.2 °C 1025.6 hPa Calm     93 % 0.0 mm 0.0 W/m2 CLR
05:21 4.3 °C 3.2 °C 1025.6 hPa Calm     93 % 0.0 mm 0.0 W/m2 CLR
05:26 4.2 °C 3.1 °C 1025.6 hPa Calm     93 % 0.0 mm 0.0 W/m2 CLR
05:31 4.2 °C 3.2 °C 1025.6 hPa SW 5.6 km/h 5.6 km/h 93 % 0.0 mm 0.0 W/m2 CLR
05:36 4.3 °C 3.2 °C 1026.0 hPa Calm     93 % 0.0 mm 0.0 W/m2 CLR
05:41 4.1 °C 3.0 °C 1026.0 hPa Calm     93 % 0.0 mm 0.0 W/m2 CLR
05:46 4.1 °C 3.0 °C 1026.0 hPa Calm     93 % 0.0 mm 0.0 W/m2 CLR
05:51 4.0 °C 2.9 °C 1026.0 hPa Calm     93 % 0.0 mm 0.0 W/m2 CLR
05:56 3.9 °C 2.9 °C 1026.0 hPa Calm     93 % 0.0 mm 0.0 W/m2 CLR
06:01 3.8 °C 2.8 °C 1026.0 hPa Calm     93 % 0.0 mm 0.0 W/m2 CLR
06:06 3.9 °C 2.8 °C 1026.0 hPa Calm     93 % 0.0 mm 0.0 W/m2 CLR
06:11 4.0 °C 2.9 °C 1026.0 hPa Calm     93 % 0.0 mm 0.0 W/m2 CLR
06:16 4.1 °C 3.0 °C 1026.0 hPa Calm     93 % 0.0 mm 0.0 W/m2 CLR
06:21 4.0 °C 2.9 °C 1026.0 hPa Calm     93 % 0.0 mm 0.0 W/m2 CLR
06:26 4.1 °C 3.0 °C 1026.0 hPa Calm     93 % 0.0 mm 0.0 W/m2 CLR
06:31 4.1 °C 3.0 °C 1026.0 hPa Calm     93 % 0.0 mm 0.0 W/m2 CLR
06:36 3.9 °C 2.9 °C 1026.3 hPa Calm     93 % 0.0 mm 0.0 W/m2 CLR
06:41 3.8 °C 2.8 °C 1026.3 hPa Calm     93 % 0.0 mm 0.0 W/m2 CLR
06:46 3.8 °C 2.7 °C 1026.3 hPa Calm     93 % 0.0 mm 0.0 W/m2 CLR
06:51 3.6 °C 2.6 °C 1026.3 hPa Calm     93 % 0.0 mm 0.0 W/m2 CLR
06:56 3.8 °C 2.8 °C 1026.3 hPa Calm     93 % 0.0 mm 0.0 W/m2 CLR
07:01 4.1 °C 3.2 °C 1026.3 hPa Calm     94 % 0.0 mm 0.0 W/m2 CLR
07:06 4.0 °C 2.9 °C 1026.3 hPa Calm     93 % 0.3 mm 0.0 W/m2 RA
07:11 3.9 °C 2.8 °C 1026.3 hPa Calm     93 % 0.3 mm 0.0 W/m2 CLR
07:16 3.8 °C 2.7 °C 1026.3 hPa Calm     93 % 0.3 mm 0.0 W/m2 CLR
07:21 3.7 °C 2.7 °C 1026.3 hPa Calm     93 % 0.3 mm 0.0 W/m2 CLR
07:26 3.6 °C 2.6 °C 1026.3 hPa Calm     93 % 0.3 mm 0.0 W/m2 CLR
07:31 3.6 °C 2.6 °C 1026.3 hPa Calm     93 % 0.3 mm 0.0 W/m2 CLR
07:36 3.7 °C 2.8 °C 1026.6 hPa Calm     94 % 0.3 mm 0.0 W/m2 CLR
07:41 3.7 °C 2.7 °C 1026.6 hPa Calm     93 % 0.3 mm 0.0 W/m2 OVC
07:46 3.6 °C 2.6 °C 1026.6 hPa Calm     93 % 0.3 mm 0.0 W/m2 OVC
07:51 3.6 °C 2.6 °C 1026.6 hPa SSW 3.2 km/h 3.2 km/h 93 % 0.3 mm 5.0 W/m2 OVC
07:56 3.8 °C 2.9 °C 1026.6 hPa Calm     94 % 0.3 mm 9.0 W/m2 BKN
08:01 3.7 °C 2.7 °C 1027.0 hPa Calm     93 % 0.3 mm 12.0 W/m2 BKN
08:06 3.7 °C 2.7 °C 1027.0 hPa Calm     93 % 0.0 mm 14.0 W/m2 BKN
08:11 3.8 °C 2.8 °C 1027.0 hPa Calm     93 % 0.0 mm 18.0 W/m2 BKN
08:16 3.7 °C 2.7 °C 1027.3 hPa Calm     93 % 0.0 mm 26.0 W/m2 BKN
08:21 3.8 °C 2.8 °C 1027.3 hPa Calm     93 % 0.0 mm 35.0 W/m2 BKN
08:26 3.9 °C 3.1 °C 1027.3 hPa Calm     94 % 0.0 mm 49.0 W/m2 SCT
08:31 4.1 °C 3.2 °C 1027.3 hPa Calm     94 % 0.0 mm 60.0 W/m2 SCT
08:36 4.2 °C 3.1 °C 1027.3 hPa Calm     93 % 0.0 mm 54.0 W/m2 SCT
08:41 4.4 °C 3.5 °C 1027.3 hPa Calm     94 % 0.0 mm 33.0 W/m2 BKN
08:46 4.5 °C 3.4 °C 1027.3 hPa Calm     93 % 0.0 mm 35.0 W/m2 BKN
08:51 4.7 °C 3.8 °C 1027.3 hPa Calm     94 % 0.0 mm 72.0 W/m2 BKN
08:56 4.9 °C 4.1 °C 1027.3 hPa Calm     94 % 0.0 mm 114.0 W/m2 SCT
09:01 5.2 °C 4.3 °C 1027.7 hPa Calm     94 % 0.0 mm 149.0 W/m2 CLR
09:06 5.6 °C 4.7 °C 1027.3 hPa Calm     94 % 0.0 mm 165.0 W/m2 CLR
09:11 5.9 °C 5.0 °C 1027.3 hPa Calm     94 % 0.0 mm 183.0 W/m2 CLR
09:16 6.1 °C 5.2 °C 1027.3 hPa Calm     94 % 0.0 mm 200.0 W/m2 CLR
09:21 6.3 °C 5.4 °C 1027.7 hPa Calm     94 % 0.0 mm 221.0 W/m2 CLR
09:26 6.8 °C 5.9 °C 1027.7 hPa Calm     94 % 0.0 mm 239.0 W/m2 CLR
09:31 7.2 °C 6.3 °C 1027.7 hPa Calm     94 % 0.0 mm 255.0 W/m2 CLR
09:36 7.5 °C 6.4 °C 1027.7 hPa Calm     93 % 0.0 mm 271.0 W/m2 CLR
09:41 7.9 °C 6.9 °C 1027.7 hPa Calm     93 % 0.0 mm 285.0 W/m2 CLR
09:46 8.4 °C 7.3 °C 1027.7 hPa Calm     93 % 0.0 mm 302.0 W/m2 CLR
09:51 8.7 °C 7.5 °C 1027.7 hPa Calm     92 % 0.0 mm 318.0 W/m2 CLR
09:56 9.1 °C 7.9 °C 1027.7 hPa Calm     92 % 0.0 mm 334.0 W/m2 CLR
10:01 9.6 °C 8.2 °C 1027.3 hPa Calm     91 % 0.0 mm 350.0 W/m2 CLR
10:06 10.1 °C 8.7 °C 1027.3 hPa Calm     91 % 0.0 mm 367.0 W/m2 CLR
10:11 10.7 °C 9.1 °C 1027.3 hPa Calm     90 % 0.0 mm 385.0 W/m2 CLR
10:16 11.3 °C 9.6 °C 1027.7 hPa Calm     89 % 0.0 mm 403.0 W/m2 CLR
10:21 11.7 °C 9.4 °C 1027.7 hPa Calm     86 % 0.0 mm 411.0 W/m2 CLR
10:26 12.1 °C 9.3 °C 1027.7 hPa Calm     83 % 0.0 mm 425.0 W/m2 CLR
10:31 12.4 °C 9.6 °C 1027.7 hPa Calm     83 % 0.0 mm 446.0 W/m2 CLR
10:36 12.8 °C 9.7 °C 1027.7 hPa Calm     81 % 0.0 mm 462.0 W/m2 CLR
10:41 13.1 °C 9.6 °C 1027.7 hPa Calm     79 % 0.0 mm 476.0 W/m2 CLR
10:51 13.9 °C 9.7 °C 1027.7 hPa Calm     76 % 0.0 mm 506.0 W/m2 CLR
10:57 14.2 °C 9.4 °C 1027.7 hPa NNW 13.0 km/h 13.0 km/h 73 % 0.0 mm 519.0 W/m2 CLR
11:02 14.2 °C 9.2 °C 1027.7 hPa WSW 5.6 km/h 5.6 km/h 72 % 0.0 mm 531.0 W/m2 CLR
11:07 14.3 °C 9.3 °C 1027.7 hPa NNW 13.0 km/h 13.0 km/h 72 % 0.0 mm 541.0 W/m2 CLR
11:12 14.4 °C 9.2 °C 1027.7 hPa NNW 9.7 km/h 9.7 km/h 71 % 0.0 mm 555.0 W/m2 CLR
11:17 14.7 °C 9.4 °C 1027.7 hPa WNW 1.9 km/h   71 % 0.0 mm 570.0 W/m2 CLR
11:22 14.9 °C 9.4 °C 1027.7 hPa NNW 12.9 km/h 12.9 km/h 70 % 0.0 mm 580.0 W/m2 CLR
11:27 14.9 °C 9.2 °C 1027.7 hPa NNW 11.1 km/h 11.1 km/h 69 % 0.0 mm 592.0 W/m2 CLR
11:32 15.0 °C 9.6 °C 1027.7 hPa NW 18.5 km/h 18.5 km/h 70 % 0.0 mm 606.0 W/m2 CLR
11:37 15.0 °C 9.3 °C 1028.0 hPa NW 16.7 km/h 16.7 km/h 69 % 0.0 mm 615.0 W/m2 CLR
11:42 14.9 °C 9.2 °C 1028.0 hPa NW 11.1 km/h 11.1 km/h 69 % 0.0 mm 628.0 W/m2 CLR
11:47 15.0 °C 9.1 °C 1028.0 hPa West 11.1 km/h 11.1 km/h 68 % 0.0 mm 638.0 W/m2 CLR
11:52 15.2 °C 9.3 °C 1028.0 hPa WNW 13.0 km/h 13.0 km/h 68 % 0.0 mm 652.0 W/m2 CLR
11:57 15.2 °C 9.1 °C 1028.0 hPa North 11.1 km/h 11.1 km/h 67 % 0.0 mm 659.0 W/m2 CLR
12:02 15.4 °C 9.1 °C 1028.0 hPa NNW 18.5 km/h 18.5 km/h 66 % 0.0 mm 666.0 W/m2 CLR
12:07 15.2 °C 9.1 °C 1028.0 hPa NNW 18.5 km/h 18.5 km/h 67 % 0.0 mm 700.0 W/m2 CLR
12:12 15.2 °C 9.3 °C 1028.0 hPa NW 9.3 km/h 9.3 km/h 68 % 0.0 mm 687.0 W/m2 CLR
12:17 15.3 °C 9.7 °C 1028.0 hPa NW 9.3 km/h 9.3 km/h 69 % 0.0 mm 700.0 W/m2 CLR
12:22 15.7 °C 10.2 °C 1028.0 hPa NW 13.0 km/h 13.0 km/h 70 % 0.0 mm 707.0 W/m2 CLR
12:27 15.8 °C 9.7 °C 1028.0 hPa WNW 16.7 km/h 16.7 km/h 67 % 0.0 mm 715.0 W/m2 CLR
12:32 15.8 °C 9.9 °C 1028.0 hPa NW 16.7 km/h 16.7 km/h 68 % 0.0 mm 722.0 W/m2 CLR
12:37 15.8 °C 9.9 °C 1028.0 hPa NW 24.1 km/h 24.1 km/h 68 % 0.0 mm 729.0 W/m2 CLR
12:42 15.8 °C 9.4 °C 1028.0 hPa WNW 18.5 km/h 18.5 km/h 66 % 0.0 mm 742.0 W/m2 CLR
12:47 15.8 °C 9.2 °C 1028.0 hPa NW 20.9 km/h 20.9 km/h 65 % 0.0 mm 747.0 W/m2 CLR
12:52 15.8 °C 9.7 °C 1028.0 hPa NW 24.1 km/h 24.1 km/h 67 % 0.0 mm 752.0 W/m2 CLR
12:57 15.9 °C 9.6 °C 1028.0 hPa NW 24.1 km/h 24.1 km/h 66 % 0.0 mm 761.0 W/m2 CLR
13:02 16.0 °C 9.7 °C 1028.0 hPa WNW 20.4 km/h 20.4 km/h 66 % 0.0 mm 770.0 W/m2 CLR
13:07 16.1 °C 9.5 °C 1028.0 hPa NW 18.5 km/h 18.5 km/h 65 % 0.0 mm 779.0 W/m2 CLR
13:12 16.2 °C 9.4 °C 1028.0 hPa NNW 16.7 km/h 16.7 km/h 64 % 0.0 mm 772.0 W/m2 CLR
13:17 16.4 °C 9.1 °C 1027.7 hPa NNW 20.4 km/h 20.4 km/h 62 % 0.0 mm 751.0 W/m2 CLR
13:22 16.4 °C 9.3 °C 1027.7 hPa NW 18.5 km/h 18.5 km/h 63 % 0.0 mm 793.0 W/m2 CLR
13:27 16.5 °C 9.7 °C 1027.7 hPa NW 19.3 km/h 19.3 km/h 64 % 0.0 mm 791.0 W/m2 CLR
13:32 16.6 °C 9.6 °C 1027.7 hPa NW 13.0 km/h 13.0 km/h 63 % 0.0 mm 795.0 W/m2 CLR
13:37 16.7 °C 9.1 °C 1027.7 hPa NNW 20.4 km/h 20.4 km/h 61 % 0.0 mm 796.0 W/m2 CLR
13:42 16.6 °C 9.2 °C 1027.7 hPa NNW 18.5 km/h 18.5 km/h 62 % 0.0 mm 800.0 W/m2 CLR
13:47 16.6 °C 9.1 °C 1027.7 hPa NW 22.2 km/h 22.2 km/h 61 % 0.0 mm 800.0 W/m2 CLR
13:52 16.9 °C 10.1 °C 1027.7 hPa North 18.5 km/h 18.5 km/h 64 % 0.0 mm 800.0 W/m2 CLR
13:57 16.9 °C 9.6 °C 1027.7 hPa NW 20.4 km/h 20.4 km/h 62 % 0.0 mm 807.0 W/m2 CLR
14:02 17.2 °C 9.8 °C 1027.3 hPa NNW 20.4 km/h 20.4 km/h 62 % 0.0 mm 803.0 W/m2 CLR
14:07 17.2 °C 9.3 °C 1027.3 hPa North 18.5 km/h 18.5 km/h 60 % 0.0 mm 770.0 W/m2 CLR
14:12 17.2 °C 9.6 °C 1027.3 hPa NW 18.5 km/h 18.5 km/h 61 % 0.0 mm 807.0 W/m2 CLR
14:17 17.3 °C 9.4 °C 1027.3 hPa WNW 20.4 km/h 20.4 km/h 60 % 0.0 mm 805.0 W/m2 CLR
14:22 17.3 °C 10.0 °C 1027.3 hPa NNW 6.4 km/h 6.4 km/h 62 % 0.0 mm 791.0 W/m2 CLR
14:27 17.6 °C 8.9 °C 1027.3 hPa NW 11.1 km/h 11.1 km/h 57 % 0.0 mm 803.0 W/m2 CLR
14:32 17.8 °C 9.9 °C 1027.3 hPa NW 14.8 km/h 14.8 km/h 60 % 0.0 mm 798.0 W/m2 CLR
14:37 17.8 °C 8.4 °C 1027.3 hPa NNW 11.1 km/h 11.1 km/h 54 % 0.0 mm 803.0 W/m2 CLR
14:42 17.9 °C 8.4 °C 1027.0 hPa North 7.4 km/h 7.4 km/h 54 % 0.0 mm 809.0 W/m2 CLR
14:47 17.9 °C 7.1 °C 1027.0 hPa NNW 16.7 km/h 16.7 km/h 49 % 0.0 mm 682.0 W/m2 CLR
14:52 17.9 °C 7.6 °C 1027.0 hPa NNW 11.1 km/h 11.1 km/h 51 % 0.0 mm 747.0 W/m2 CLR
14:57 18.1 °C 7.8 °C 1027.0 hPa Calm     51 % 0.0 mm 786.0 W/m2 CLR
15:02 18.3 °C 7.7 °C 1027.0 hPa Calm     50 % 0.0 mm 784.0 W/m2 CLR
15:07 18.3 °C 7.4 °C 1027.0 hPa WNW 14.5 km/h 14.5 km/h 49 % 0.0 mm 777.0 W/m2 CLR
15:12 18.3 °C 6.8 °C 1027.0 hPa WNW 1.9 km/h   47 % 0.0 mm 765.0 W/m2 CLR
15:17 18.6 °C 7.6 °C 1026.6 hPa North 9.7 km/h 9.7 km/h 49 % 0.0 mm 759.0 W/m2 CLR
15:22 18.7 °C 6.8 °C 1026.6 hPa North 18.5 km/h 18.5 km/h 46 % 0.0 mm 761.0 W/m2 CLR
15:27 18.7 °C 7.5 °C 1027.0 hPa NW 11.1 km/h 11.1 km/h 48 % 0.0 mm 752.0 W/m2 CLR
15:32 18.7 °C 7.8 °C 1026.6 hPa North 8.0 km/h 8.0 km/h 49 % 0.0 mm 747.0 W/m2 CLR
15:37 18.7 °C 7.1 °C 1026.6 hPa NE 5.6 km/h 5.6 km/h 47 % 0.0 mm 735.0 W/m2 CLR
15:42 18.7 °C 7.8 °C 1026.6 hPa North 13.0 km/h 13.0 km/h 49 % 0.0 mm 735.0 W/m2 CLR
15:47 18.8 °C 7.9 °C 1026.6 hPa NNW 17.7 km/h 17.7 km/h 49 % 0.0 mm 724.0 W/m2 CLR
15:52 18.7 °C 7.5 °C 1026.6 hPa NW 5.6 km/h 5.6 km/h 48 % 0.0 mm 710.0 W/m2 CLR
15:57 18.6 °C 7.7 °C 1026.6 hPa North 5.6 km/h 5.6 km/h 49 % 0.0 mm 705.0 W/m2 CLR
16:02 18.6 °C 7.7 °C 1026.6 hPa North 5.6 km/h 5.6 km/h 49 % 0.0 mm 696.0 W/m2 CLR
16:07 18.7 °C 7.7 °C 1026.6 hPa NNW 14.8 km/h 14.8 km/h 49 % 0.0 mm 689.0 W/m2 CLR
16:12 18.8 °C 7.6 °C 1026.6 hPa North 14.8 km/h 14.8 km/h 48 % 0.0 mm 701.0 W/m2 CLR
16:17 18.9 °C 8.3 °C 1026.3 hPa NNE 14.5 km/h 14.5 km/h 50 % 0.0 mm 670.0 W/m2 CLR
16:22 18.9 °C 7.7 °C 1026.3 hPa NNE 14.8 km/h 14.8 km/h 48 % 0.0 mm 652.0 W/m2 CLR
16:27 19.1 °C 7.8 °C 1026.3 hPa North 18.5 km/h 18.5 km/h 48 % 0.0 mm 657.0 W/m2 CLR
16:32 19.2 °C 7.9 °C 1026.3 hPa NNE 3.2 km/h 3.2 km/h 48 % 0.0 mm 642.0 W/m2 CLR
16:37 19.4 °C 8.4 °C 1026.3 hPa West 5.6 km/h 5.6 km/h 49 % 0.0 mm 626.0 W/m2 CLR
16:42 19.2 °C 7.6 °C 1026.3 hPa NNW 18.5 km/h 18.5 km/h 47 % 0.0 mm 613.0 W/m2 CLR
16:47 19.1 °C 7.2 °C 1026.3 hPa NE 5.6 km/h 5.6 km/h 46 % 0.0 mm 598.0 W/m2 CLR
16:52 19.3 °C 7.7 °C 1026.3 hPa North 3.2 km/h 4.3 km/h 47 % 0.0 mm 591.0 W/m2 CLR
16:57 19.4 °C 7.4 °C 1026.3 hPa NNE 19.3 km/h 19.3 km/h 46 % 0.0 mm 575.0 W/m2 CLR
17:02 19.2 °C 7.6 °C 1026.3 hPa NNE 16.7 km/h 16.7 km/h 47 % 0.0 mm 566.0 W/m2 CLR
17:07 19.3 °C 7.4 °C 1026.0 hPa NNE 3.7 km/h   46 % 0.0 mm 564.0 W/m2 CLR
17:12 19.4 °C 8.4 °C 1026.0 hPa North 5.6 km/h 6.0 km/h 49 % 0.0 mm 555.0 W/m2 CLR
17:17 19.4 °C 7.8 °C 1026.0 hPa NNW 16.1 km/h 16.1 km/h 47 % 0.0 mm 540.0 W/m2 CLR
17:22 19.3 °C 8.1 °C 1026.0 hPa WNW 13.0 km/h 13.0 km/h 48 % 0.0 mm 506.0 W/m2 CLR
17:27 19.4 °C 7.8 °C 1026.0 hPa NNE 3.7 km/h   47 % 0.0 mm 490.0 W/m2 CLR
17:32 19.4 °C 7.8 °C 1026.0 hPa NNW 9.3 km/h 9.3 km/h 47 % 0.0 mm 476.0 W/m2 CLR
17:37 19.3 °C 7.7 °C 1026.0 hPa NNW 14.8 km/h 14.8 km/h 47 % 0.0 mm 457.0 W/m2 CLR
17:42 19.3 °C 7.4 °C 1026.0 hPa Calm     46 % 0.0 mm 443.0 W/m2 CLR
17:47 19.4 °C 6.8 °C 1026.0 hPa North 18.5 km/h 18.5 km/h 44 % 0.0 mm 429.0 W/m2 CLR
17:52 19.4 °C 7.2 °C 1026.0 hPa North 16.7 km/h 16.7 km/h 45 % 0.0 mm 415.0 W/m2 CLR
17:57 19.4 °C 7.2 °C 1026.0 hPa NNW 16.7 km/h 16.7 km/h 45 % 0.0 mm 401.0 W/m2 CLR
18:03 19.4 °C 6.8 °C 1026.0 hPa NW 9.3 km/h 9.3 km/h 44 % 0.0 mm 387.0 W/m2 CLR
18:08 19.5 °C 7.2 °C 1026.0 hPa NNE 14.5 km/h 14.5 km/h 45 % 0.0 mm 367.0 W/m2 CLR
18:13 19.4 °C 6.6 °C 1026.0 hPa North 18.5 km/h 18.5 km/h 43 % 0.0 mm 352.0 W/m2 CLR
18:18 19.3 °C 6.8 °C 1026.0 hPa North 3.7 km/h   44 % 0.0 mm 336.0 W/m2 CLR
18:23 19.3 °C 6.4 °C 1026.0 hPa NNE 9.3 km/h 9.3 km/h 43 % 0.0 mm 322.0 W/m2 FEW
18:28 19.3 °C 6.7 °C 1026.0 hPa NNW 11.1 km/h 11.1 km/h 44 % 0.0 mm 306.0 W/m2 BKN
18:33 19.1 °C 6.6 °C 1026.0 hPa North 3.7 km/h 3.7 km/h 44 % 0.0 mm 287.0 W/m2 OVC
18:38 19.2 °C 6.7 °C 1026.0 hPa Calm     44 % 0.0 mm 271.0 W/m2 OVC
18:43 19.4 °C 6.8 °C 1026.0 hPa NNE 5.6 km/h 5.6 km/h 44 % 0.0 mm 255.0 W/m2 OVC
18:48 19.4 °C 6.8 °C 1026.0 hPa North 7.4 km/h 7.4 km/h 44 % 0.0 mm 237.0 W/m2 OVC
18:53 19.3 °C 6.8 °C 1026.0 hPa North 5.6 km/h 5.6 km/h 44 % 0.0 mm 218.0 W/m2 OVC
18:58 19.3 °C 7.1 °C 1026.0 hPa NNW 7.4 km/h 7.4 km/h 45 % 0.0 mm 199.0 W/m2 OVC
19:03 19.3 °C 7.1 °C 1026.0 hPa Calm     45 % 0.0 mm 181.0 W/m2 OVC
19:08 19.2 °C 6.7 °C 1026.0 hPa Calm     44 % 0.0 mm 162.0 W/m2 OVC
19:13 19.2 °C 6.7 °C 1026.0 hPa NNE 1.9 km/h 1.9 km/h 44 % 0.0 mm 141.0 W/m2 OVC
19:18 19.1 °C 6.6 °C 1026.0 hPa North 8.0 km/h 8.0 km/h 44 % 0.0 mm 125.0 W/m2 OVC
19:23 18.9 °C 6.7 °C 1026.0 hPa Calm     45 % 0.0 mm 107.0 W/m2 OVC
19:28 18.8 °C 6.6 °C 1026.0 hPa NNW 5.6 km/h 5.6 km/h 45 % 0.0 mm 91.0 W/m2 OVC
19:33 18.7 °C 6.8 °C 1026.0 hPa Calm     46 % 0.0 mm 62.0 W/m2 OVC
19:38 18.7 °C 6.8 °C 1026.3 hPa Calm     46 % 0.0 mm 49.0 W/m2 OVC
19:43 18.6 °C 6.8 °C 1026.3 hPa Calm     46 % 0.0 mm 44.0 W/m2 OVC
19:48 18.4 °C 6.6 °C 1026.3 hPa NNW 5.6 km/h 5.6 km/h 46 % 0.0 mm 35.0 W/m2 OVC
19:53 18.2 °C 6.9 °C 1026.3 hPa Calm     48 % 0.0 mm 26.0 W/m2 OVC
19:58 17.9 °C 6.8 °C 1026.3 hPa Calm     48 % 0.0 mm 18.0 W/m2 OVC
20:03 17.7 °C 6.5 °C 1026.3 hPa Calm     48 % 0.0 mm 14.0 W/m2 OVC
20:08 17.4 °C 6.3 °C 1026.3 hPa Calm     48 % 0.0 mm 12.0 W/m2 OVC
20:13 17.2 °C 6.4 °C 1026.3 hPa Calm     49 % 0.0 mm 9.0 W/m2 OVC
20:14 17.2 °C 6.3 °C 1026.3 hPa Calm     49 % 0.0 mm 7.0 W/m2 OVC
20:19 16.9 °C 6.2 °C 1026.3 hPa Calm     49 % 0.0 mm 5.0 W/m2 OVC
20:24 16.7 °C 6.5 °C 1026.3 hPa Calm     51 % 0.0 mm 0.0 W/m2 OVC
20:29 16.4 °C 6.5 °C 1026.3 hPa Calm     52 % 0.0 mm 0.0 W/m2 OVC
20:34 16.2 °C 6.6 °C 1026.6 hPa Calm     53 % 0.0 mm 0.0 W/m2 CLR
20:39 15.9 °C 6.9 °C 1026.6 hPa Calm     55 % 0.0 mm 0.0 W/m2 CLR
20:44 15.6 °C 6.8 °C 1026.6 hPa Calm     56 % 0.0 mm 0.0 W/m2 CLR
20:49 15.3 °C 6.8 °C 1026.6 hPa Calm     57 % 0.0 mm 0.0 W/m2 CLR
20:54 15.0 °C 7.3 °C 1026.6 hPa Calm     60 % 0.0 mm 0.0 W/m2 CLR
20:59 14.7 °C 7.2 °C 1026.6 hPa Calm     61 % 0.0 mm 0.0 W/m2 CLR
21:01 14.6 °C 7.2 °C 1026.6 hPa Calm     61 % 0.0 mm 0.0 W/m2 CLR
21:06 14.3 °C 7.4 °C 1027.0 hPa Calm     63 % 0.0 mm 0.0 W/m2 CLR
21:10 13.9 °C 7.4 °C 1027.0 hPa Calm     65 % 0.0 mm 0.0 W/m2 CLR
21:16 13.5 °C 7.3 °C 1027.0 hPa Calm     66 % 0.0 mm 0.0 W/m2 CLR
21:21 13.2 °C 7.2 °C 1027.0 hPa Calm     67 % 0.0 mm 0.0 W/m2 CLR
21:26 12.9 °C 7.4 °C 1027.0 hPa Calm     69 % 0.0 mm 0.0 W/m2 CLR
21:31 12.7 °C 7.3 °C 1027.0 hPa Calm     70 % 0.0 mm 0.0 W/m2 CLR
21:36 12.4 °C 7.3 °C 1027.3 hPa Calm     71 % 0.0 mm 0.0 W/m2 CLR
21:41 12.2 °C 7.3 °C 1027.3 hPa Calm     72 % 0.0 mm 0.0 W/m2 CLR
21:46 11.9 °C 7.3 °C 1027.3 hPa Calm     73 % 0.0 mm 0.0 W/m2 CLR
21:51 11.7 °C 7.2 °C 1027.3 hPa Calm     74 % 0.0 mm 0.0 W/m2 CLR
21:56 11.4 °C 7.2 °C 1027.3 hPa Calm     75 % 0.0 mm 0.0 W/m2 CLR
22:01 11.3 °C 7.0 °C 1027.7 hPa Calm     75 % 0.0 mm 0.0 W/m2 CLR
22:06 11.1 °C 7.0 °C 1027.7 hPa Calm     76 % 0.0 mm 0.0 W/m2 CLR
22:11 10.8 °C 6.9 °C 1027.7 hPa Calm     77 % 0.0 mm 0.0 W/m2 CLR
22:16 10.7 °C 6.8 °C 1027.7 hPa Calm     77 % 0.0 mm 0.0 W/m2 CLR
22:21 10.6 °C 6.9 °C 1027.7 hPa Calm     78 % 0.0 mm 0.0 W/m2 CLR
22:26 10.4 °C 6.7 °C 1027.7 hPa Calm     78 % 0.0 mm 0.0 W/m2 CLR
22:31 10.2 °C 6.7 °C 1027.7 hPa Calm     79 % 0.0 mm 0.0 W/m2 CLR
22:36 10.1 °C 6.6 °C 1028.0 hPa Calm     79 % 0.0 mm 0.0 W/m2 CLR
22:41 10.0 °C 6.7 °C 1028.0 hPa Calm     80 % 0.0 mm 0.0 W/m2 CLR
22:46 9.9 °C 6.6 °C 1028.0 hPa Calm     80 % 0.0 mm 0.0 W/m2 CLR
22:51 9.8 °C 6.5 °C 1028.0 hPa Calm     80 % 0.0 mm 0.0 W/m2 CLR
22:56 9.7 °C 6.4 °C 1028.0 hPa Calm     80 % 0.0 mm 0.0 W/m2 CLR
23:01 9.5 °C 6.4 °C 1028.0 hPa Calm     81 % 0.0 mm 0.0 W/m2 CLR
23:06 9.4 °C 6.3 °C 1028.0 hPa Calm     81 % 0.0 mm 0.0 W/m2 CLR
23:11 9.3 °C 6.2 °C 1028.0 hPa Calm     81 % 0.0 mm 0.0 W/m2 CLR
23:16 9.2 °C 6.1 °C 1028.0 hPa Calm     81 % 0.0 mm 0.0 W/m2 CLR
23:21 9.2 °C 6.3 °C 1028.0 hPa Calm     82 % 0.0 mm 0.0 W/m2 CLR
23:26 9.1 °C 6.2 °C 1028.0 hPa Calm     82 % 0.0 mm 0.0 W/m2 CLR
23:31 9.1 °C 6.2 °C 1028.3 hPa Calm     82 % 0.0 mm 0.0 W/m2 CLR
23:36 9.0 °C 6.1 °C 1028.3 hPa Calm     82 % 0.0 mm 0.0 W/m2 CLR
23:41 8.9 °C 6.2 °C 1028.3 hPa Calm     83 % 0.0 mm 0.0 W/m2 CLR
23:46 8.8 °C 6.1 °C 1028.3 hPa Calm     83 % 0.0 mm 0.0 W/m2 CLR
23:51 8.7 °C 6.0 °C 1028.3 hPa Calm     83 % 0.0 mm 0.0 W/m2 CLR
23:56 8.5 °C 5.8 °C 1028.3 hPa Calm     83 % 0.0 mm 0.0 W/m2 CLR
Lo Temps de Massalio
Compliments of Weather Underground - 1.25 mb